Time;durP1;ratioP1;P1;durP2;ratioP2;P2;SDS_P1;SDS_P2;PMS_P1;PMS_P2;Temp;Humidity;BMP_temperature;BMP_pressure;BME280_temperature;BME280_humidity;BME280_pressure;Samples;Min_cycle;Max_cycle;Signal;HPM_P1;HPM_P2
2021/01/14 00:00:30;;;;;;;3.50;1.70;;;2.40;99.90;;;;;;5113572;27;20447;-56
2021/01/14 00:02:55;;;;;;;1.70;1.23;;;2.30;99.90;;;;;;5115116;28;20520;-57
2021/01/14 00:05:21;;;;;;;4.37;1.70;;;2.20;99.90;;;;;;5113197;28;20522;-56
2021/01/14 00:07:49;;;;;;;1.87;1.07;;;2.20;94.40;;;;;;5116068;28;20200;-57
2021/01/14 00:10:15;;;;;;;2.40;1.50;;;2.20;74.20;;;;;;5104862;28;20930;-56
2021/01/14 00:12:42;;;;;;;2.10;1.33;;;2.30;65.40;;;;;;5119281;27;20448;-56
2021/01/14 00:15:09;;;;;;;2.60;1.50;;;2.20;9.70;;;;;;5116486;28;20458;-57
2021/01/14 00:17:35;;;;;;;3.40;1.30;;;2.10;11.50;;;;;;5114829;28;20432;-56
2021/01/14 00:20:00;;;;;;;1.40;1.27;;;2.20;1.00;;;;;;5116194;28;20950;-56
2021/01/14 00:22:26;;;;;;;1.50;0.93;;;2.20;1.00;;;;;;5111341;27;20182;-56
2021/01/14 00:24:52;;;;;;;1.70;1.07;;;2.20;1.00;;;;;;5110617;27;20178;-56
2021/01/14 00:27:18;;;;;;;1.60;1.50;;;2.20;1.00;;;;;;5116471;28;20194;-56
2021/01/14 00:29:43;;;;;;;7.80;2.10;;;2.10;1.00;;;;;;5124999;27;20433;-56
2021/01/14 00:32:09;;;;;;;2.10;1.63;;;2.00;1.00;;;;;;5135452;27;20221;-57
2021/01/14 00:34:37;;;;;;;3.90;1.53;;;2.10;2.90;;;;;;5113582;28;20664;-57
2021/01/14 00:39:52;;;;;;;1.53;1.37;;;2.20;1.00;;;;;;5136338;27;20495;-56
2021/01/14 00:42:18;;;;;;;6.00;1.80;;;2.00;1.00;;;;;;5133523;27;21007;-55
2021/01/14 00:44:43;;;;;;;1.90;1.10;;;2.00;1.00;;;;;;5114757;28;20182;-56
2021/01/14 00:47:09;;;;;;;5.80;1.37;;;2.00;1.00;;;;;;5116028;28;20194;-56
2021/01/14 00:49:35;;;;;;;5.30;1.53;;;2.00;1.00;;;;;;5115936;28;20179;-56
2021/01/14 00:52:00;;;;;;;12.67;1.33;;;2.00;1.00;;;;;;5115851;28;20190;-56
2021/01/14 00:54:26;;;;;;;5.30;1.47;;;2.10;1.00;;;;;;5131538;27;20186;-56
2021/01/14 00:56:51;;;;;;;1.93;1.00;;;1.90;1.00;;;;;;5115629;27;20223;-56
2021/01/14 00:59:17;;;;;;;1.37;1.03;;;2.10;1.00;;;;;;5108571;28;20558;-56
2021/01/14 01:01:42;;;;;;;1.37;1.20;;;1.90;1.00;;;;;;5115330;28;20185;-56
2021/01/14 01:04:10;;;;;;;1.77;1.20;;;1.90;1.00;;;;;;5114207;28;20731;-57
2021/01/14 01:06:37;;;;;;;2.57;1.40;;;1.90;1.00;;;;;;5115592;28;20202;-56
2021/01/14 01:09:04;;;;;;;3.53;1.20;;;2.00;1.00;;;;;;5113842;28;20428;-57
2021/01/14 01:11:30;;;;;;;2.40;0.90;;;2.00;1.00;;;;;;5115561;28;20475;-56
2021/01/14 01:13:56;;;;;;;3.10;1.13;;;2.00;1.00;;;;;;5115352;28;20436;-56
2021/01/14 01:16:21;;;;;;;2.50;1.00;;;2.20;1.00;;;;;;5106634;27;20236;-56
2021/01/14 01:18:48;;;;;;;1.33;0.93;;;2.20;1.00;;;;;;5099884;28;20960;-57
2021/01/14 01:21:14;;;;;;;4.10;1.30;;;2.20;1.00;;;;;;5115468;28;20647;-56
2021/01/14 01:23:40;;;;;;;3.40;1.23;;;2.10;1.00;;;;;;5115155;28;20436;-58
2021/01/14 01:26:06;;;;;;;4.37;1.30;;;2.10;1.00;;;;;;5115183;27;20459;-56
2021/01/14 01:28:32;;;;;;;7.93;1.53;;;2.10;7.90;;;;;;5114757;28;20424;-56
2021/01/14 01:30:59;;;;;;;6.03;1.27;;;2.10;10.60;;;;;;5094811;28;20223;-55
2021/01/14 01:33:28;;;;;;;1.87;1.43;;;2.20;7.90;;;;;;5104792;28;20428;-56
2021/01/14 01:35:55;;;;;;;4.73;1.57;;;2.20;7.50;;;;;;5111871;27;20454;-56
2021/01/14 01:38:21;;;;;;;2.13;1.40;;;2.10;15.50;;;;;;5107038;28;20439;-56
2021/01/14 01:40:55;;;;;;;4.40;1.10;;;2.10;21.40;;;;;;5102963;28;20523;-57
2021/01/14 01:43:21;;;;;;;3.23;1.37;;;2.20;22.50;;;;;;5112713;28;20443;-57
2021/01/14 01:45:47;;;;;;;2.17;1.80;;;2.20;26.80;;;;;;5111883;27;20437;-55
2021/01/14 01:48:13;;;;;;;2.00;1.63;;;2.20;40.60;;;;;;5111328;27;20439;-56
2021/01/14 01:50:39;;;;;;;5.27;1.63;;;2.10;71.90;;;;;;5109681;27;20447;-57
2021/01/14 01:53:05;;;;;;;1.37;1.20;;;2.00;99.90;;;;;;5111534;27;20448;-56
2021/01/14 01:55:31;;;;;;;2.60;1.40;;;2.00;99.90;;;;;;5112231;27;20444;-55
2021/01/14 01:57:56;;;;;;;6.67;1.63;;;2.00;99.90;;;;;;5109970;28;20202;-54
2021/01/14 02:00:22;;;;;;;3.10;2.23;;;2.00;99.90;;;;;;5123501;27;20196;-55
2021/01/14 02:02:47;;;;;;;4.50;1.33;;;1.90;99.90;;;;;;5121091;27;20205;-55
2021/01/14 02:05:13;;;;;;;3.17;1.20;;;1.90;99.90;;;;;;5118186;27;20201;-55
2021/01/14 02:08:03;;;;;;;1.13;1.03;;;2.10;99.90;;;;;;5119205;27;20227;-55
2021/01/14 02:10:40;;;;;;;2.87;1.23;;;2.00;99.90;;;;;;5113545;28;20174;-56
2021/01/14 02:13:30;;;;;;;1.57;1.00;;;1.90;99.90;;;;;;5112105;27;20432;-56
2021/01/14 02:16:02;;;;;;;3.70;1.20;;;2.00;99.90;;;;;;5109545;28;20948;-55
2021/01/14 02:18:29;;;;;;;4.10;0.87;;;2.00;99.90;;;;;;5111143;28;20432;-56
2021/01/14 02:20:58;;;;;;;4.77;1.13;;;2.10;99.90;;;;;;5107586;27;20757;-54
2021/01/14 02:23:45;;;;;;;2.80;0.80;;;2.00;99.90;;;;;;5114562;27;20451;-55
2021/01/14 02:26:21;;;;;;;4.00;1.00;;;2.10;99.90;;;;;;5107735;28;20499;-55
2021/01/14 02:28:48;;;;;;;1.50;0.80;;;2.20;99.90;;;;;;5108591;28;20940;-56
2021/01/14 02:31:15;;;;;;;2.93;1.00;;;2.30;93.50;;;;;;5131693;27;20993;-56
2021/01/14 02:33:41;;;;;;;3.23;0.80;;;2.20;75.30;;;;;;5112537;27;20879;-55
2021/01/14 02:36:07;;;;;;;2.27;1.00;;;2.20;72.20;;;;;;5112688;28;20515;-55
2021/01/14 02:38:33;;;;;;;1.37;0.90;;;2.20;90.90;;;;;;5111967;28;20440;-55
2021/01/14 02:40:59;;;;;;;6.23;1.63;;;2.10;96.40;;;;;;5110008;28;20433;-55
2021/01/14 02:43:25;;;;;;;1.80;0.83;;;2.10;99.90;;;;;;5112316;28;20435;-57
2021/01/14 02:45:52;;;;;;;3.37;1.40;;;1.90;99.90;;;;;;5112736;28;20785;-55
2021/01/14 02:48:20;;;;;;;4.47;1.60;;;1.90;99.90;;;;;;5110185;27;20428;-56
2021/01/14 02:50:51;;;;;;;3.47;1.43;;;1.80;99.90;;;;;;5109923;28;20435;-56
2021/01/14 02:53:17;;;;;;;3.50;1.47;;;1.80;99.90;;;;;;5103792;28;20533;-56
2021/01/14 02:55:44;;;;;;;2.33;1.33;;;1.70;99.90;;;;;;5107293;28;20457;-56
2021/01/14 02:58:10;;;;;;;2.93;1.73;;;1.50;99.90;;;;;;5107211;27;20437;-57
2021/01/14 03:00:36;;;;;;;2.03;1.70;;;1.40;99.90;;;;;;5109572;27;20508;-55
2021/01/14 03:03:01;;;;;;;1.27;1.17;;;1.40;99.90;;;;;;5115300;27;20447;-56
2021/01/14 03:05:27;;;;;;;3.13;1.73;;;1.40;99.90;;;;;;5124464;27;21142;-56
2021/01/14 03:07:53;;;;;;;2.00;1.80;;;1.40;99.90;;;;;;5116676;27;20204;-56
2021/01/14 03:10:18;;;;;;;1.80;1.37;;;1.40;99.90;;;;;;5127475;27;20269;-56
2021/01/14 03:12:44;;;;;;;3.00;1.60;;;1.40;99.90;;;;;;5133472;27;20181;-55
2021/01/14 03:15:10;;;;;;;1.63;1.50;;;1.40;99.90;;;;;;5097019;27;20182;-55
2021/01/14 03:17:36;;;;;;;2.13;1.80;;;1.40;99.90;;;;;;5092864;28;20179;-55
2021/01/14 03:20:05;;;;;;;2.47;2.17;;;1.40;99.90;;;;;;5092663;28;20183;-55
2021/01/14 03:22:30;;;;;;;2.03;1.83;;;1.40;99.90;;;;;;5105163;27;20501;-55
2021/01/14 03:24:56;;;;;;;1.83;1.73;;;1.40;99.90;;;;;;5118994;27;20476;-55
2021/01/14 03:27:21;;;;;;;4.50;1.70;;;1.30;99.90;;;;;;5108415;28;20198;-55
2021/01/14 03:29:47;;;;;;;2.67;1.90;;;1.30;99.90;;;;;;5110335;28;20258;-55
2021/01/14 03:32:13;;;;;;;2.27;1.77;;;1.30;99.90;;;;;;5110065;28;20245;-54
2021/01/14 03:34:38;;;;;;;4.47;1.73;;;1.30;99.90;;;;;;5114030;27;20178;-54
2021/01/14 03:37:05;;;;;;;1.90;1.53;;;1.30;99.90;;;;;;5109973;28;20628;-54
2021/01/14 03:39:31;;;;;;;1.97;1.70;;;1.40;99.90;;;;;;5124336;27;20205;-54
2021/01/14 03:41:57;;;;;;;1.43;1.33;;;1.40;99.90;;;;;;5116079;28;20504;-55
2021/01/14 03:44:24;;;;;;;1.57;1.47;;;1.30;99.90;;;;;;5110762;28;20186;-54
2021/01/14 03:46:51;;;;;;;2.30;1.60;;;1.30;99.90;;;;;;5110288;28;20547;-55
2021/01/14 03:49:17;;;;;;;2.20;1.53;;;1.40;99.90;;;;;;5112053;28;21009;-54
2021/01/14 03:51:48;;;;;;;2.93;2.07;;;1.40;99.90;;;;;;5110844;28;20468;-54
2021/01/14 03:54:13;;;;;;;3.80;2.00;;;1.30;99.90;;;;;;5127128;28;20527;-54
2021/01/14 03:56:40;;;;;;;1.97;1.87;;;1.30;99.90;;;;;;5107682;27;20443;-55
2021/01/14 03:59:06;;;;;;;2.60;2.40;;;1.30;99.90;;;;;;5115039;28;20655;-55
2021/01/14 04:01:33;;;;;;;2.40;2.20;;;1.30;99.90;;;;;;5109113;27;20465;-56
2021/01/14 04:03:59;;;;;;;3.20;2.50;;;1.30;99.90;;;;;;5114386;28;20780;-55
2021/01/14 04:06:35;;;;;;;5.53;2.60;;;1.30;99.90;;;;;;5125129;28;20500;-54
2021/01/14 04:09:03;;;;;;;2.53;2.13;;;1.30;99.90;;;;;;5117889;28;20190;-55
2021/01/14 04:11:28;;;;;;;3.67;2.30;;;1.30;99.90;;;;;;5125862;27;20432;-56
2021/01/14 04:13:54;;;;;;;3.17;2.40;;;1.40;99.90;;;;;;5122100;28;20432;-55
2021/01/14 04:16:20;;;;;;;6.30;2.63;;;1.40;99.90;;;;;;5112686;28;20187;-55
2021/01/14 04:18:46;;;;;;;2.70;2.40;;;1.50;99.90;;;;;;5112371;28;20268;-55
2021/01/14 04:21:15;;;;;;;2.40;2.20;;;1.60;99.90;;;;;;5112359;28;20432;-55
2021/01/14 04:23:43;;;;;;;3.20;2.90;;;1.60;99.90;;;;;;5114079;28;20183;-55
2021/01/14 04:26:09;;;;;;;3.23;2.90;;;1.70;99.90;;;;;;5132804;27;20412;-54
2021/01/14 04:28:34;;;;;;;3.33;3.03;;;1.70;99.90;;;;;;5120368;27;20439;-54
2021/01/14 04:31:00;;;;;;;7.53;3.60;;;1.60;99.90;;;;;;5118183;27;20562;-55
2021/01/14 04:33:26;;;;;;;4.90;3.73;;;1.50;99.90;;;;;;5116817;28;20175;-55
2021/01/14 04:35:56;;;;;;;4.00;2.37;;;1.50;99.90;;;;;;5131499;27;20221;-55
2021/01/14 04:38:23;;;;;;;3.97;2.90;;;1.40;99.90;;;;;;5117821;28;20333;-55
2021/01/14 04:41:00;;;;;;;6.17;4.40;;;1.50;99.90;;;;;;5120933;27;20454;-55
2021/01/14 04:43:28;;;;;;;7.07;4.17;;;1.60;99.90;;;;;;5116095;27;20427;-56
2021/01/14 04:46:03;;;;;;;9.50;4.70;;;1.50;99.90;;;;;;5114409;28;20435;-54
2021/01/14 04:48:50;;;;;;;5.27;3.30;;;1.50;99.90;;;;;;5121471;28;20474;-54
2021/01/14 04:51:17;;;;;;;5.77;4.80;;;1.40;99.90;;;;;;5123225;27;20439;-54
2021/01/14 04:53:49;;;;;;;7.17;4.60;;;1.50;99.90;;;;;;5118279;27;20527;-56
2021/01/14 04:56:16;;;;;;;7.07;5.27;;;1.50;99.90;;;;;;5116949;27;20526;-56
2021/01/14 04:58:46;;;;;;;7.60;4.90;;;1.60;99.90;;;;;;5126284;27;20941;-56
2021/01/14 05:01:24;;;;;;;5.23;4.03;;;1.60;99.90;;;;;;5124498;27;20448;-55
2021/01/14 05:03:51;;;;;;;7.13;4.33;;;1.60;99.90;;;;;;5131428;27;20464;-57
2021/01/14 05:06:21;;;;;;;4.77;4.17;;;1.60;99.90;;;;;;5113906;28;20456;-61
2021/01/14 05:08:49;;;;;;;3.73;3.43;;;1.60;99.90;;;;;;5113911;28;20449;-62
2021/01/14 05:11:16;;;;;;;5.17;3.70;;;1.80;99.90;;;;;;5120619;27;20439;-61
2021/01/14 05:13:44;;;;;;;4.37;3.67;;;1.80;99.90;;;;;;5126072;27;20435;-62
2021/01/14 05:16:10;;;;;;;4.77;3.50;;;1.80;99.90;;;;;;5112076;28;20909;-58
2021/01/14 05:18:36;;;;;;;4.00;3.00;;;1.80;99.90;;;;;;5111443;27;20801;-56
2021/01/14 05:21:02;;;;;;;4.37;3.27;;;1.70;99.90;;;;;;5110696;27;20427;-59
2021/01/14 05:23:31;;;;;;;3.77;3.00;;;1.70;99.90;;;;;;5117669;27;20173;-58
2021/01/14 05:25:57;;;;;;;3.23;2.93;;;1.80;99.90;;;;;;5123673;27;20469;-57
2021/01/14 05:28:25;;;;;;;3.37;2.90;;;1.80;99.90;;;;;;5110594;28;20547;-57
2021/01/14 05:30:52;;;;;;;3.13;2.80;;;1.80;99.90;;;;;;5113440;27;20551;-57
2021/01/14 05:33:23;;;;;;;4.37;2.90;;;1.70;99.90;;;;;;5126039;27;20945;-57
2021/01/14 05:35:53;;;;;;;3.17;2.67;;;1.70;99.90;;;;;;5112827;27;20526;-57
2021/01/14 05:38:30;;;;;;;2.40;2.13;;;1.80;99.90;;;;;;5119574;27;20520;-57
2021/01/14 05:41:21;;;;;;;2.80;2.60;;;1.80;99.90;;;;;;5121155;27;20536;-58
2021/01/14 05:43:52;;;;;;;2.17;1.97;;;1.80;99.90;;;;;;5109900;28;20808;-56
2021/01/14 05:46:20;;;;;;;2.80;2.60;;;1.80;99.90;;;;;;5111080;28;20556;-56
2021/01/14 05:48:47;;;;;;;1.87;1.70;;;1.90;99.90;;;;;;5115208;27;20440;-59
2021/01/14 05:51:27;;;;;;;2.30;2.10;;;1.90;99.90;;;;;;5132766;27;20780;-58
2021/01/14 05:53:55;;;;;;;2.47;2.20;;;1.90;99.90;;;;;;5129631;27;20830;-57
2021/01/14 05:56:33;;;;;;;2.67;2.40;;;1.90;99.90;;;;;;5119798;27;20856;-58
2021/01/14 05:58:59;;;;;;;2.87;2.40;;;2.00;99.90;;;;;;5113673;28;20445;-57
2021/01/14 06:01:25;;;;;;;2.90;2.70;;;2.00;99.90;;;;;;5111624;28;20427;-58
2021/01/14 06:03:51;;;;;;;2.40;2.20;;;2.00;99.90;;;;;;5115046;27;20516;-57
2021/01/14 06:06:18;;;;;;;2.80;2.60;;;2.00;99.90;;;;;;5127750;27;20619;-57
2021/01/14 06:08:44;;;;;;;2.53;2.33;;;2.00;99.90;;;;;;5116684;27;20471;-57
2021/01/14 06:11:22;;;;;;;2.97;2.30;;;2.00;99.90;;;;;;5120293;27;20427;-57
2021/01/14 06:13:48;;;;;;;2.10;1.90;;;2.00;99.90;;;;;;5111144;27;20171;-56
2021/01/14 06:16:14;;;;;;;2.43;2.23;;;2.00;99.90;;;;;;5128822;27;20435;-57
2021/01/14 06:18:40;;;;;;;2.57;2.27;;;2.00;99.90;;;;;;5128299;27;20439;-55
2021/01/14 06:21:06;;;;;;;2.80;2.60;;;2.00;99.90;;;;;;5115344;27;20433;-56
2021/01/14 06:23:47;;;;;;;3.07;2.77;;;2.00;99.90;;;;;;5130559;27;20686;-57
2021/01/14 06:26:26;;;;;;;3.37;3.07;;;2.20;99.90;;;;;;5123128;27;20522;-56
2021/01/14 06:28:52;;;;;;;2.90;2.40;;;2.20;99.90;;;;;;5108559;27;20971;-56
2021/01/14 06:31:25;;;;;;;2.43;2.20;;;2.20;99.90;;;;;;5131482;27;20459;-56
2021/01/14 06:33:54;;;;;;;3.73;2.73;;;2.30;99.90;;;;;;5127373;27;20174;-55
2021/01/14 06:36:26;;;;;;;2.70;2.40;;;2.30;99.90;;;;;;5119206;27;20450;-57
2021/01/14 06:39:09;;;;;;;3.47;3.17;;;2.30;99.90;;;;;;5118931;27;20963;-54
2021/01/14 06:41:39;;;;;;;3.40;3.10;;;2.20;99.90;;;;;;5128975;27;20431;-56
2021/01/14 06:44:09;;;;;;;7.60;3.93;;;2.10;99.90;;;;;;5118253;27;20447;-55
2021/01/14 06:46:36;;;;;;;3.93;3.20;;;2.10;99.90;;;;;;5110151;28;20451;-55
2021/01/14 06:49:11;;;;;;;4.27;3.50;;;2.20;99.90;;;;;;5122732;27;20435;-56
2021/01/14 06:51:53;;;;;;;5.27;3.67;;;2.10;99.90;;;;;;5127122;27;20423;-54
2021/01/14 06:54:20;;;;;;;4.47;3.47;;;2.20;99.90;;;;;;5121487;27;20497;-57
2021/01/14 06:56:57;;;;;;;7.77;4.20;;;2.10;99.90;;;;;;5120594;27;20442;-56
2021/01/14 06:59:24;;;;;;;7.47;4.37;;;2.20;99.90;;;;;;5118890;27;20436;-55
2021/01/14 07:02:31;;;;;;;7.23;4.40;;;2.20;99.90;;;;;;5115394;27;20447;-55
2021/01/14 07:05:07;;;;;;;6.00;4.40;;;2.30;99.90;;;;;;5129229;27;20999;-57
2021/01/14 07:07:52;;;;;;;6.40;4.40;;;2.30;99.90;;;;;;5122519;27;20475;-55
2021/01/14 07:10:18;;;;;;;7.30;4.43;;;2.30;99.90;;;;;;5120581;27;20436;-55
2021/01/14 07:12:45;;;;;;;6.90;4.83;;;2.30;99.90;;;;;;5109816;28;20421;-56
2021/01/14 07:15:17;;;;;;;9.43;5.53;;;2.30;99.90;;;;;;5125006;27;20529;-55
2021/01/14 07:17:45;;;;;;;8.40;5.47;;;2.30;99.90;;;;;;5115527;27;20441;-55
2021/01/14 07:20:15;;;;;;;8.03;4.83;;;2.40;99.90;;;;;;5116301;27;20774;-56
2021/01/14 07:22:52;;;;;;;10.63;6.50;;;2.30;99.90;;;;;;5113059;27;20432;-56
2021/01/14 07:25:19;;;;;;;13.30;6.63;;;2.30;99.90;;;;;;5109610;28;20447;-55
2021/01/14 07:27:47;;;;;;;9.60;5.90;;;2.30;99.90;;;;;;5117427;27;20948;-56
2021/01/14 07:30:17;;;;;;;11.53;6.07;;;2.30;99.90;;;;;;5111786;27;20775;-58
2021/01/14 07:32:54;;;;;;;11.80;6.90;;;2.30;99.90;;;;;;5112345;28;20468;-57
2021/01/14 07:35:36;;;;;;;10.20;6.70;;;2.30;99.90;;;;;;5129529;27;20547;-58
2021/01/14 07:38:03;;;;;;;11.90;5.93;;;2.30;99.90;;;;;;5112604;27;20965;-57
2021/01/14 07:40:33;;;;;;;10.47;6.13;;;2.30;99.90;;;;;;5111930;28;20451;-57
2021/01/14 07:43:00;;;;;;;11.70;6.00;;;2.40;99.90;;;;;;5120175;28;20525;-56
2021/01/14 07:45:26;;;;;;;14.43;8.53;;;2.40;99.90;;;;;;5126933;27;20492;-56
2021/01/14 07:47:52;;;;;;;10.70;6.53;;;2.50;99.90;;;;;;5118009;28;20464;-56
2021/01/14 07:50:19;;;;;;;7.83;4.97;;;2.40;99.90;;;;;;5123179;27;20180;-56
2021/01/14 07:52:47;;;;;;;12.40;6.47;;;2.40;99.90;;;;;;5112273;28;20211;-56
2021/01/14 07:55:22;;;;;;;9.33;5.50;;;2.40;99.90;;;;;;5111455;28;20478;-55
2021/01/14 07:58:07;;;;;;;9.93;5.10;;;2.50;99.90;;;;;;5110191;28;20801;-56
2021/01/14 08:00:32;;;;;;;10.43;6.17;;;2.40;99.90;;;;;;5112422;28;20526;-55
2021/01/14 08:03:04;;;;;;;10.07;6.00;;;2.50;99.90;;;;;;5113080;28;20518;-55
2021/01/14 08:05:57;;;;;;;9.27;5.27;;;2.60;99.90;;;;;;5128327;28;20179;-56
2021/01/14 08:08:31;;;;;;;10.03;5.80;;;2.50;99.90;;;;;;5102694;28;20462;-55
2021/01/14 08:11:13;;;;;;;7.07;5.20;;;2.50;99.90;;;;;;5123812;27;20654;-56
2021/01/14 08:14:18;;;;;;;12.60;6.17;;;2.60;99.90;;;;;;5124411;28;20474;-55
2021/01/14 08:16:51;;;;;;;10.37;6.30;;;2.60;99.90;;;;;;5108557;28;20468;-57
2021/01/14 08:19:31;;;;;;;7.37;5.60;;;2.60;99.90;;;;;;5119515;28;21016;-55
2021/01/14 08:22:02;;;;;;;9.20;5.27;;;2.70;99.90;;;;;;5111546;28;20942;-58
2021/01/14 08:24:45;;;;;;;9.90;6.80;;;2.60;99.90;;;;;;5111606;28;20519;-55
2021/01/14 08:27:31;;;;;;;9.70;5.63;;;2.60;99.90;;;;;;5112988;28;20983;-55
2021/01/14 08:30:01;;;;;;;10.67;6.50;;;2.70;99.90;;;;;;5114188;28;20463;-55
2021/01/14 08:32:31;;;;;;;11.20;6.53;;;2.60;99.90;;;;;;5114229;28;20464;-54
2021/01/14 08:34:59;;;;;;;8.07;5.93;;;2.60;99.90;;;;;;5115057;28;20424;-54
2021/01/14 08:37:38;;;;;;;9.73;5.90;;;2.60;99.90;;;;;;5115098;28;20895;-55
2021/01/14 08:40:09;;;;;;;9.80;5.50;;;2.60;99.90;;;;;;5114695;28;20482;-55
2021/01/14 08:42:40;;;;;;;9.20;4.30;;;2.60;99.90;;;;;;5115633;27;20518;-55
2021/01/14 08:45:14;;;;;;;10.90;6.20;;;2.50;99.90;;;;;;5115075;27;20451;-55
2021/01/14 08:47:52;;;;;;;12.17;5.37;;;2.40;99.90;;;;;;5123659;27;20521;-55
2021/01/14 08:50:31;;;;;;;7.90;5.53;;;2.50;99.90;;;;;;5115253;28;20434;-55
2021/01/14 08:52:58;;;;;;;11.23;5.90;;;2.40;99.90;;;;;;5115221;28;20843;-55
2021/01/14 08:55:24;;;;;;;9.47;6.60;;;2.40;99.90;;;;;;5115109;28;20520;-55
2021/01/14 08:57:53;;;;;;;11.67;7.00;;;2.40;99.90;;;;;;5115133;28;20518;-55
2021/01/14 09:00:19;;;;;;;12.27;6.60;;;2.50;99.90;;;;;;5114418;28;20175;-55
2021/01/14 09:02:45;;;;;;;11.97;6.70;;;2.70;99.90;;;;;;5114540;27;20797;-54
2021/01/14 09:05:12;;;;;;;9.13;6.87;;;2.70;99.90;;;;;;5115684;27;20435;-54
2021/01/14 09:07:38;;;;;;;11.33;7.10;;;2.70;99.90;;;;;;5114291;28;20522;-55
2021/01/14 09:10:04;;;;;;;12.13;7.70;;;2.70;99.90;;;;;;5113621;28;20443;-55
2021/01/14 09:12:30;;;;;;;10.93;6.83;;;2.70;99.90;;;;;;5119202;27;20175;-56
2021/01/14 09:14:55;;;;;;;10.93;6.53;;;2.70;99.90;;;;;;5132180;27;20423;-55
2021/01/14 09:17:21;;;;;;;11.33;7.70;;;2.60;99.90;;;;;;5129400;27;20252;-54
2021/01/14 09:19:53;;;;;;;13.53;9.10;;;2.60;99.90;;;;;;5114130;28;20213;-55
2021/01/14 09:22:28;;;;;;;12.27;7.47;;;2.60;99.90;;;;;;5114032;28;20659;-54
2021/01/14 09:24:54;;;;;;;13.70;9.00;;;2.70;99.90;;;;;;5114247;28;20492;-54
2021/01/14 09:27:28;;;;;;;14.07;8.17;;;2.80;99.90;;;;;;5120055;27;20456;-55
2021/01/14 09:29:55;;;;;;;13.07;8.17;;;2.80;99.90;;;;;;5118624;27;20695;-57
2021/01/14 09:32:21;;;;;;;12.67;8.23;;;2.90;99.90;;;;;;5114093;28;20445;-56
2021/01/14 09:34:47;;;;;;;15.63;9.13;;;2.90;99.90;;;;;;5122715;27;20446;-55
2021/01/14 09:37:19;;;;;;;14.93;9.40;;;2.90;99.90;;;;;;5117737;27;20451;-55
2021/01/14 09:39:46;;;;;;;13.87;9.00;;;2.90;99.90;;;;;;5134070;27;20175;-56
2021/01/14 09:42:12;;;;;;;15.50;9.47;;;3.00;99.90;;;;;;5128631;27;20438;-56
2021/01/14 09:44:38;;;;;;;14.63;9.87;;;3.00;99.90;;;;;;5119597;27;20431;-55
2021/01/14 09:47:04;;;;;;;14.77;10.17;;;3.10;99.90;;;;;;5127470;27;20520;-55
2021/01/14 09:49:30;;;;;;;28.73;9.57;;;3.00;99.90;;;;;;5123183;27;20581;-55
2021/01/14 09:51:55;;;;;;;14.03;9.80;;;3.00;99.90;;;;;;5125054;27;20290;-55
2021/01/14 09:54:23;;;;;;;17.30;10.43;;;3.00;99.90;;;;;;5121626;27;20882;-56
2021/01/14 09:56:56;;;;;;;17.13;9.53;;;3.20;99.90;;;;;;5124805;27;20233;-56
2021/01/14 09:59:40;;;;;;;15.27;9.30;;;3.20;99.90;;;;;;5118254;27;20433;-56
2021/01/14 10:02:22;;;;;;;16.13;9.80;;;3.30;99.90;;;;;;5134843;27;20436;-56
2021/01/14 10:05:06;;;;;;;13.87;9.30;;;3.30;99.90;;;;;;5109768;27;20458;-56
2021/01/14 10:07:35;;;;;;;14.40;8.80;;;3.20;99.90;;;;;;5128532;27;20466;-56
2021/01/14 10:10:01;;;;;;;13.00;9.50;;;3.30;99.90;;;;;;5122484;27;20851;-56
2021/01/14 10:12:32;;;;;;;15.43;9.60;;;3.30;99.90;;;;;;5115643;27;20527;-56
2021/01/14 10:15:09;;;;;;;16.60;9.60;;;3.30;99.90;;;;;;5112968;28;20442;-56
2021/01/14 10:17:38;;;;;;;14.50;9.53;;;3.30;99.90;;;;;;5114101;28;20431;-56
2021/01/14 10:20:06;;;;;;;15.87;9.77;;;3.40;99.90;;;;;;5114161;28;20432;-56
2021/01/14 10:22:34;;;;;;;14.53;9.20;;;3.50;99.90;;;;;;5114019;28;20789;-56
2021/01/14 10:25:08;;;;;;;16.23;9.40;;;3.50;99.90;;;;;;5111350;28;20462;-57
2021/01/14 10:27:35;;;;;;;16.00;9.80;;;3.50;99.90;;;;;;5105810;27;20462;-56
2021/01/14 10:30:21;;;;;;;12.00;8.43;;;3.50;99.90;;;;;;5133637;27;20521;-57
2021/01/14 10:32:48;;;;;;;15.20;8.30;;;3.50;99.90;;;;;;5134338;27;20546;-57
2021/01/14 10:35:27;;;;;;;14.67;10.10;;;3.50;99.90;;;;;;5121594;27;20430;-57
2021/01/14 10:38:11;;;;;;;15.37;9.80;;;3.60;99.90;;;;;;5132378;27;20457;-57
2021/01/14 10:40:38;;;;;;;16.87;8.30;;;3.60;99.90;;;;;;5134314;27;20452;-57
2021/01/14 10:43:05;;;;;;;12.90;9.40;;;3.70;99.90;;;;;;5132594;27;20444;-57
2021/01/14 10:45:32;;;;;;;16.13;9.50;;;3.70;99.90;;;;;;5127419;27;20435;-58
2021/01/14 10:48:35;;;;;;;14.67;9.57;;;3.70;99.90;;;;;;5130930;27;20471;-57
2021/01/14 10:51:00;;;;;;;12.07;8.53;;;3.90;99.90;;;;;;5103467;27;20451;-60
2021/01/14 10:53:26;;;;;;;12.70;9.00;;;3.80;99.90;;;;;;5122339;27;20464;-60
2021/01/14 10:56:02;;;;;;;12.30;8.63;;;3.90;99.90;;;;;;5114813;27;20177;-59
2021/01/14 10:58:28;;;;;;;11.60;8.30;;;4.00;99.90;;;;;;5121553;27;20700;-59
2021/01/14 11:00:55;;;;;;;15.90;8.67;;;;;;;;;;5113335;28;20426;-62
2021/01/14 11:03:25;;;;;;;15.60;8.57;;;4.00;99.90;;;;;;5130129;27;20279;-59
2021/01/14 11:05:54;;;;;;;12.13;7.87;;;4.10;99.90;;;;;;5112140;28;20855;-58
2021/01/14 11:08:27;;;;;;;12.77;8.63;;;4.00;99.90;;;;;;5110417;28;20515;-60
2021/01/14 11:11:07;;;;;;;11.90;7.53;;;3.90;99.90;;;;;;5132689;27;20436;-60
2021/01/14 11:13:37;;;;;;;13.63;8.40;;;3.90;99.90;;;;;;5122738;27;20431;-58
2021/01/14 11:16:04;;;;;;;11.67;8.00;;;3.80;99.90;;;;;;5111830;28;20432;-59
2021/01/14 11:18:30;;;;;;;13.10;8.90;;;3.90;99.90;;;;;;5110148;28;20522;-59
2021/01/14 11:20:55;;;;;;;13.50;8.27;;;3.90;99.90;;;;;;5110771;28;20849;-58
2021/01/14 11:23:21;;;;;;;11.23;7.37;;;4.00;99.90;;;;;;5107403;28;20179;-59
2021/01/14 11:25:46;;;;;;;11.10;7.53;;;4.00;99.90;;;;;;5108529;28;20232;-58
2021/01/14 11:28:12;;;;;;;13.93;8.13;;;4.20;99.90;;;;;;5111886;28;20256;-59
2021/01/14 11:30:38;;;;;;;7.97;6.53;;;4.00;99.90;;;;;;5110621;28;20632;-59
2021/01/14 11:33:03;;;;;;;11.90;7.73;;;3.90;99.90;;;;;;5111920;28;20261;-58
2021/01/14 11:35:29;;;;;;;8.60;7.40;;;4.10;99.90;;;;;;5112154;28;20672;-58
2021/01/14 11:37:54;;;;;;;10.27;7.00;;;4.10;99.90;;;;;;5123270;27;20181;-59
2021/01/14 11:40:20;;;;;;;9.63;6.40;;;4.20;99.90;;;;;;5111872;28;20175;-59
2021/01/14 11:42:46;;;;;;;7.60;6.50;;;4.10;99.90;;;;;;5111540;28;20182;-60
2021/01/14 11:45:11;;;;;;;11.20;7.27;;;4.00;99.90;;;;;;5111851;28;20612;-59
2021/01/14 11:47:37;;;;;;;10.70;6.97;;;4.00;99.90;;;;;;5111948;28;20659;-60
2021/01/14 11:50:03;;;;;;;7.37;5.30;;;3.90;99.90;;;;;;5110964;28;20432;-61
2021/01/14 11:52:29;;;;;;;10.93;6.87;;;4.10;99.90;;;;;;5111802;28;20309;-59
2021/01/14 11:54:54;;;;;;;7.17;5.63;;;4.30;99.90;;;;;;5111761;28;20940;-60
2021/01/14 11:57:20;;;;;;;9.80;5.93;;;4.20;99.90;;;;;;5111918;28;20177;-59
2021/01/14 11:59:46;;;;;;;9.00;6.00;;;4.20;99.10;;;;;;5111671;28;20175;-60
2021/01/14 12:02:12;;;;;;;7.77;5.43;;;4.10;95.90;;;;;;5114975;28;20216;-60
2021/01/14 12:04:38;;;;;;;9.17;5.63;;;4.10;95.00;;;;;;5115681;28;20166;-59
2021/01/14 12:07:03;;;;;;;5.80;4.97;;;4.20;92.80;;;;;;5115493;28;20467;-59
2021/01/14 12:09:30;;;;;;;5.70;4.27;;;4.30;65.20;;;;;;5115865;28;20182;-59
2021/01/14 12:11:56;;;;;;;5.60;4.37;;;4.20;40.70;;;;;;5115815;28;20184;-60
2021/01/14 12:14:22;;;;;;;5.20;4.37;;;4.10;25.80;;;;;;5115730;28;20438;-59
2021/01/14 12:16:48;;;;;;;11.30;4.30;;;4.10;28.80;;;;;;5114549;28;20178;-60
2021/01/14 12:19:13;;;;;;;8.23;5.07;;;4.10;28.20;;;;;;5115410;28;20527;-60
2021/01/14 12:21:39;;;;;;;7.37;4.27;;;4.10;26.20;;;;;;5114774;28;20183;-60
2021/01/14 12:24:05;;;;;;;5.33;3.67;;;4.00;27.10;;;;;;5115498;27;20181;-59
2021/01/14 12:26:30;;;;;;;9.83;4.37;;;4.10;26.00;;;;;;5115494;28;20206;-59
2021/01/14 12:28:56;;;;;;;7.77;4.10;;;4.30;20.50;;;;;;5115263;28;20185;-59
2021/01/14 12:31:22;;;;;;;6.27;4.33;;;4.30;22.50;;;;;;5114923;28;20222;-59
2021/01/14 12:33:47;;;;;;;6.17;3.93;;;4.30;15.70;;;;;;5115438;28;20262;-57
2021/01/14 12:36:13;;;;;;;5.93;3.60;;;4.20;14.40;;;;;;5115176;28;20186;-58
2021/01/14 12:38:41;;;;;;;5.17;3.80;;;4.10;15.70;;;;;;5115354;28;20201;-60
2021/01/14 12:41:07;;;;;;;5.80;3.97;;;4.20;21.10;;;;;;5115172;27;20223;-59
2021/01/14 12:43:32;;;;;;;5.53;3.10;;;4.20;15.00;;;;;;5115127;28;20817;-59
2021/01/14 12:45:58;;;;;;;7.37;3.90;;;4.30;2.80;;;;;;5115006;28;20187;-59
2021/01/14 12:48:23;;;;;;;5.80;3.40;;;4.20;1.00;;;;;;5115248;28;20208;-59
2021/01/14 12:50:49;;;;;;;4.50;4.10;;;4.10;1.00;;;;;;5115257;28;20198;-58
2021/01/14 12:53:15;;;;;;;9.57;4.63;;;4.10;1.00;;;;;;5114987;28;20651;-59
2021/01/14 12:55:41;;;;;;;7.30;4.60;;;4.10;1.00;;;;;;5115233;28;20170;-59
2021/01/14 12:58:06;;;;;;;4.87;3.90;;;4.20;1.00;;;;;;5114897;28;20436;-60
2021/01/14 13:00:32;;;;;;;5.20;3.80;;;4.30;1.00;;;;;;5114827;28;20534;-59
2021/01/14 13:02:58;;;;;;;4.90;3.40;;;4.20;1.00;;;;;;5114895;28;20592;-59
2021/01/14 13:05:24;;;;;;;4.53;2.87;;;4.20;1.00;;;;;;5114766;27;20648;-60
2021/01/14 13:07:49;;;;;;;4.40;3.40;;;4.20;1.00;;;;;;5114614;28;20209;-60